Time;durP1;ratioP1;P1;durP2;ratioP2;P2;SDS_P1;SDS_P2;PMS_P1;PMS_P2;Temp;Humidity;BMP_temperature;BMP_pressure;BME280_temperature;BME280_humidity;BME280_pressure;Samples;Min_cycle;Max_cycle;Signal;HPM_P1;HPM_P2
2023/04/11 00:01:50;;;;;;;14.00;9.20;;;;;;;14.91;61.70;100117.23;108221;1284;21984;-67
2023/04/11 00:04:16;;;;;;;15.30;9.50;;;;;;;14.91;61.84;100116.19;108216;1283;21988;-66
2023/04/11 00:06:42;;;;;;;13.60;9.40;;;;;;;14.92;62.00;100116.14;108147;1284;21999;-67
2023/04/11 00:09:10;;;;;;;12.90;8.30;;;;;;;14.93;61.94;100114.52;108215;1284;21994;-66
2023/04/11 00:11:36;;;;;;;10.70;7.80;;;;;;;14.95;62.23;100108.45;108299;1284;21949;-67
2023/04/11 00:14:04;;;;;;;13.10;8.70;;;;;;;14.97;61.91;100100.42;108268;1284;21994;-66
2023/04/11 00:16:33;;;;;;;15.10;9.40;;;;;;;14.99;61.62;100098.23;108236;1284;21977;-67
2023/04/11 00:19:00;;;;;;;15.70;9.00;;;;;;;14.98;61.56;100093.67;108157;1284;21987;-67
2023/04/11 00:21:25;;;;;;;11.50;8.00;;;;;;;14.99;61.21;100085.33;108188;1284;21996;-66
2023/04/11 00:23:52;;;;;;;11.10;6.90;;;;;;;15.03;60.89;100085.91;108152;1284;22454;-66
2023/04/11 00:26:20;;;;;;;9.80;7.40;;;;;;;15.01;61.16;100085.09;108229;1284;21970;-66
2023/04/11 00:28:50;;;;;;;14.20;8.50;;;;;;;15.00;61.14;100081.92;108250;1284;23730;-66
2023/04/11 00:31:16;;;;;;;12.60;8.90;;;;;;;15.08;60.73;100073.17;108233;1284;21980;-66
2023/04/11 00:33:42;;;;;;;14.10;8.30;;;;;;;15.04;60.91;100075.79;108281;1284;22009;-65
2023/04/11 00:36:08;;;;;;;11.70;7.10;;;;;;;15.03;60.82;100073.52;108124;1284;21997;-66
2023/04/11 00:38:37;;;;;;;11.60;7.20;;;;;;;15.04;60.85;100070.50;108174;1284;22021;-66
2023/04/11 00:41:09;;;;;;;13.20;7.30;;;;;;;15.08;60.66;100073.36;108156;1284;22185;-66
2023/04/11 00:43:48;;;;;;;12.40;8.00;;;;;;;15.10;60.52;100066.91;108256;1284;21984;-66
2023/04/11 00:46:15;;;;;;;13.10;7.90;;;;;;;15.17;60.11;100068.96;108194;1284;21983;-66
2023/04/11 00:48:41;;;;;;;11.50;7.90;;;;;;;15.26;59.65;100059.63;108153;1284;21948;-65
2023/04/11 00:51:07;;;;;;;11.50;7.00;;;;;;;15.15;60.07;100056.30;108355;1284;24319;-66
2023/04/11 00:53:35;;;;;;;10.80;7.00;;;;;;;15.09;60.24;100053.86;108432;1284;21998;-66
2023/04/11 00:56:00;;;;;;;10.90;7.60;;;;;;;15.06;60.31;100055.91;107481;1284;1003012;-67
2023/04/11 00:58:26;;;;;;;11.30;7.70;;;;;;;15.03;60.33;100055.13;108214;1284;21988;-66
2023/04/11 01:00:54;;;;;;;12.00;7.60;;;;;;;15.03;60.08;100052.48;108283;1284;24376;-66
2023/04/11 01:03:21;;;;;;;11.70;6.90;;;;;;;15.03;59.99;100050.72;108316;1284;21981;-66
2023/04/11 01:05:48;;;;;;;11.40;7.10;;;;;;;15.01;59.97;100045.31;108219;1284;23715;-66
2023/04/11 01:08:14;;;;;;;12.80;7.10;;;;;;;15.00;60.01;100041.84;108199;1285;23611;-67
2023/04/11 01:10:40;;;;;;;10.60;7.00;;;;;;;14.99;59.89;100035.34;108183;1284;21994;-67
2023/04/11 01:13:06;;;;;;;10.40;7.30;;;;;;;15.07;59.69;100032.05;108279;1284;21996;-65
2023/04/11 01:15:47;;;;;;;10.20;6.20;;;;;;;15.06;59.50;100028.70;108238;1283;23637;-68
2023/04/11 01:18:14;;;;;;;12.00;6.30;;;;;;;15.05;59.53;100027.00;108227;1284;21995;-66
2023/04/11 01:20:39;;;;;;;12.10;7.30;;;;;;;14.99;59.55;100023.13;108239;1283;23648;-67
2023/04/11 01:23:05;;;;;;;12.80;7.30;;;;;;;14.93;59.79;100018.41;108074;1284;21978;-66
2023/04/11 01:25:31;;;;;;;10.90;6.70;;;;;;;14.91;59.85;100016.02;108126;1285;22012;-67
2023/04/11 01:27:57;;;;;;;11.60;6.90;;;;;;;14.92;59.75;100016.16;108210;1284;21987;-68
2023/04/11 01:30:24;;;;;;;8.00;6.00;;;;;;;14.90;59.72;100013.02;108171;1284;22013;-67
2023/04/11 01:32:50;;;;;;;10.70;6.00;;;;;;;14.91;59.63;100012.48;108304;1284;21984;-67
2023/04/11 01:35:21;;;;;;;12.80;6.20;;;;;;;14.91;59.52;100007.72;108230;1283;21988;-65
2023/04/11 01:37:46;;;;;;;10.60;6.30;;;;;;;14.94;59.40;100005.48;108255;1284;21982;-68
2023/04/11 01:40:17;;;;;;;11.40;6.30;;;;;;;14.96;59.44;100001.33;108247;1283;21988;-67
2023/04/11 01:42:43;;;;;;;;;;;;;;;14.97;59.34;99995.47;108254;1284;22028;-65
2023/04/11 01:45:11;;;;;;;9.00;5.80;;;;;;;15.00;59.24;99987.40;108232;1284;22008;-68
2023/04/11 01:47:38;;;;;;;8.60;5.60;;;;;;;15.02;59.21;99982.03;108239;1284;21983;-66
2023/04/11 01:50:05;;;;;;;8.50;5.60;;;;;;;15.03;59.15;99980.75;108156;1284;23462;-66
2023/04/11 01:52:31;;;;;;;10.40;6.00;;;;;;;15.03;59.00;99975.10;108259;1284;23651;-66
2023/04/11 01:54:59;;;;;;;9.70;6.30;;;;;;;15.05;59.09;99970.81;108182;1284;22083;-66
2023/04/11 01:57:26;;;;;;;12.90;6.80;;;;;;;15.05;58.85;99966.56;108204;1284;22046;-66
2023/04/11 01:59:51;;;;;;;11.60;5.60;;;;;;;15.06;58.85;99963.52;108281;1283;21992;-67
2023/04/11 02:02:17;;;;;;;7.60;4.60;;;;;;;15.08;58.80;99958.65;108201;1283;22427;-65
2023/04/11 02:04:43;;;;;;;11.50;6.00;;;;;;;15.10;58.98;99953.99;108221;1283;22001;-66
2023/04/11 02:07:09;;;;;;;8.60;6.00;;;;;;;15.12;58.94;99949.33;108279;1283;21999;-67
2023/04/11 02:09:36;;;;;;;9.40;6.20;;;;;;;15.13;58.88;99944.69;108376;1283;21987;-67
2023/04/11 02:12:02;;;;;;;7.80;5.80;;;;;;;15.15;58.83;99937.39;108295;1283;21983;-66
2023/04/11 02:14:39;;;;;;;7.30;5.40;;;;;;;15.14;58.63;99931.22;108305;1283;21983;-66
2023/04/11 02:17:08;;;;;;;8.40;5.10;;;;;;;15.15;58.53;99927.82;108307;1283;21982;-66
2023/04/11 02:19:35;;;;;;;9.70;7.10;;;;;;;15.16;58.37;99932.04;108332;1280;21997;-66
2023/04/11 02:22:01;;;;;;;9.20;6.30;;;;;;;15.18;58.54;99931.80;108385;1279;23720;-67
2023/04/11 02:24:27;;;;;;;10.10;6.40;;;;;;;15.19;58.62;99927.85;108292;1283;23608;-69
2023/04/11 02:26:53;;;;;;;13.40;6.80;;;;;;;15.20;58.81;99925.56;108327;1283;21989;-68
2023/04/11 02:29:27;;;;;;;12.70;6.90;;;;;;;15.17;59.06;99921.21;108223;1283;21991;-68
2023/04/11 02:31:53;;;;;;;13.50;6.20;;;;;;;15.16;59.25;99914.90;108196;1283;21993;-68
2023/04/11 02:34:19;;;;;;;9.60;6.60;;;;;;;15.15;59.42;99906.61;108134;1283;21983;-68
2023/04/11 02:36:49;;;;;;;10.00;6.20;;;;;;;15.14;59.29;99898.71;108340;1283;22018;-69
2023/04/11 02:39:15;;;;;;;12.40;6.60;;;;;;;15.12;59.34;99896.66;108262;1281;21980;-67
2023/04/11 02:41:41;;;;;;;9.10;6.60;;;;;;;15.13;59.29;99895.56;108240;1283;21986;-67
2023/04/11 02:44:10;;;;;;;9.10;5.90;;;;;;;15.14;59.28;99887.06;108298;1283;21984;-68
2023/04/11 02:46:36;;;;;;;12.10;5.90;;;;;;;15.15;59.44;99876.95;108271;1283;23787;-67
2023/04/11 02:49:03;;;;;;;11.10;5.70;;;;;;;15.15;59.55;99876.23;108293;1280;21990;-68
2023/04/11 02:51:32;;;;;;;12.30;5.90;;;;;;;15.16;59.44;99880.27;108248;1283;23055;-68
2023/04/11 02:53:58;;;;;;;10.50;5.90;;;;;;;15.19;59.45;99880.33;108077;1283;22957;-68
2023/04/11 02:56:29;;;;;;;10.50;5.20;;;;;;;15.21;59.75;99885.92;108232;1283;22026;-68
2023/04/11 02:58:55;;;;;;;7.30;4.30;;;;;;;15.22;59.94;99893.12;108238;1283;23653;-68
2023/04/11 03:01:23;;;;;;;9.40;4.30;;;;;;;15.23;60.08;99901.02;108290;1280;21978;-69
2023/04/11 03:03:50;;;;;;;10.10;5.80;;;;;;;15.27;60.30;99899.10;108246;1283;23062;-68
2023/04/11 03:06:16;;;;;;;12.10;5.30;;;;;;;15.29;60.40;99887.35;108258;1283;23638;-68
2023/04/11 03:08:42;;;;;;;11.30;6.40;;;;;;;15.31;60.73;99883.21;108270;1283;21984;-67
2023/04/11 03:11:08;;;;;;;11.10;5.80;;;;;;;15.31;60.91;99886.55;108248;1283;21995;-70
2023/04/11 03:13:38;;;;;;;8.60;5.90;;;;;;;15.32;61.07;99885.83;108214;1283;21985;-69
2023/04/11 03:16:12;;;;;;;9.90;5.40;;;;;;;15.31;61.02;99882.31;108232;1283;21987;-69
2023/04/11 03:18:39;;;;;;;9.00;5.90;;;;;;;15.29;61.25;99878.35;108249;1283;23634;-68
2023/04/11 03:21:10;;;;;;;9.60;6.50;;;;;;;15.27;61.39;99871.70;108253;1283;21983;-67
2023/04/11 03:23:39;;;;;;;11.30;7.10;;;;;;;15.24;61.59;99867.23;108281;1283;21983;-69
2023/04/11 03:26:06;;;;;;;11.80;6.70;;;;;;;15.21;61.65;99862.40;108425;1283;23769;-67
2023/04/11 03:28:32;;;;;;;9.60;6.00;;;;;;;15.19;61.57;99860.88;108229;1283;22055;-67
2023/04/11 03:31:00;;;;;;;10.80;6.30;;;;;;;15.17;61.94;99856.90;108165;1280;25067;-66
2023/04/11 03:33:27;;;;;;;9.40;7.00;;;;;;;15.14;61.74;99856.64;108132;1283;21988;-67
2023/04/11 03:35:53;;;;;;;11.00;7.00;;;;;;;15.13;61.55;99864.13;108235;1283;22101;-69
2023/04/11 03:38:19;;;;;;;10.30;6.50;;;;;;;15.13;61.61;99858.30;108310;1283;21978;-66
2023/04/11 03:40:45;;;;;;;12.10;6.70;;;;;;;15.11;61.50;99861.55;108216;1283;21991;-69
2023/04/11 03:43:12;;;;;;;9.20;6.20;;;;;;;15.10;61.53;99856.98;108214;1283;22030;-70
2023/04/11 03:45:38;;;;;;;11.90;5.70;;;;;;;15.06;61.99;99855.92;108265;1283;23048;-68
2023/04/11 03:48:05;;;;;;;11.10;6.50;;;;;;;15.03;61.98;99852.33;108235;1283;21982;-70
2023/04/11 03:50:31;;;;;;;9.30;6.20;;;;;;;15.00;61.85;99848.36;108225;1283;22009;-68
2023/04/11 03:52:56;;;;;;;11.00;7.10;;;;;;;15.04;61.83;99841.69;108219;1283;23845;-70
2023/04/11 03:55:22;;;;;;;9.60;7.00;;;;;;;15.07;61.70;99840.66;108331;1280;22013;-68
2023/04/11 03:57:48;;;;;;;12.20;7.60;;;;;;;14.99;62.18;99832.88;108280;1283;21983;-70
2023/04/11 04:00:14;;;;;;;8.70;6.60;;;;;;;14.91;62.63;99830.00;108301;1283;21986;-70
2023/04/11 04:02:59;;;;;;;9.50;6.40;;;;;;;14.87;62.78;99825.21;108144;1283;22150;-68
2023/04/11 04:05:25;;;;;;;12.20;6.50;;;;;;;14.85;62.91;99821.22;108155;1283;23631;-69
2023/04/11 04:07:55;;;;;;;13.60;7.10;;;;;;;14.81;63.18;99820.30;107506;1283;1002625;-67
2023/04/11 04:10:21;;;;;;;11.30;7.30;;;;;;;14.81;63.12;99826.33;108337;1283;21984;-67
2023/04/11 04:12:47;;;;;;;10.70;6.90;;;;;;;14.81;63.40;99830.55;108281;1284;22004;-67
2023/04/11 04:15:20;;;;;;;11.70;7.00;;;;;;;14.82;63.49;99832.64;108202;1284;21985;-67
2023/04/11 04:17:48;;;;;;;9.70;6.00;;;;;;;14.82;63.74;99832.11;108233;1283;21987;-66
2023/04/11 04:20:14;;;;;;;14.50;6.40;;;;;;;14.83;63.63;99831.52;108185;1284;21992;-69
2023/04/11 04:22:40;;;;;;;12.80;6.30;;;;;;;14.86;64.40;99827.55;108303;1283;23106;-70
2023/04/11 04:25:11;;;;;;;10.80;6.00;;;;;;;14.90;64.26;99827.92;108397;1283;21984;-70
2023/04/11 04:27:42;;;;;;;8.60;5.90;;;;;;;14.93;64.20;99826.03;108388;1283;21981;-70
2023/04/11 04:30:14;;;;;;;12.50;7.00;;;;;;;14.97;64.10;99825.71;108339;1283;21993;-69
2023/04/11 04:32:42;;;;;;;9.60;6.00;;;;;;;14.98;64.59;99823.88;108277;1283;21994;-69
2023/04/11 04:35:10;;;;;;;16.60;5.60;;;;;;;15.01;64.43;99823.91;108351;1272;21993;-69
2023/04/11 04:37:38;;;;;;;10.90;6.60;;;;;;;15.04;64.53;99823.45;108298;1280;21993;-68
2023/04/11 04:40:07;;;;;;;9.80;5.90;;;;;;;15.11;64.73;99826.92;108271;1280;23628;-68
2023/04/11 04:42:35;;;;;;;11.80;6.50;;;;;;;15.15;64.59;99828.34;108244;1284;22953;-70
2023/04/11 04:45:20;;;;;;;10.10;6.40;;;;;;;15.18;64.34;99829.84;108170;1283;22173;-68
2023/04/11 04:47:47;;;;;;;10.90;6.40;;;;;;;15.19;64.33;99826.24;108285;1283;21985;-70
2023/04/11 04:50:13;;;;;;;11.10;7.20;;;;;;;15.19;64.55;99825.91;108149;1283;163461;-67
2023/04/11 04:52:41;;;;;;;13.30;6.70;;;;;;;15.15;65.29;99824.30;108293;1279;21994;-71
2023/04/11 04:55:08;;;;;;;9.10;5.80;;;;;;;15.14;64.89;99826.25;108296;1283;21994;-67
2023/04/11 04:57:34;;;;;;;9.80;6.40;;;;;;;15.13;65.53;99824.55;108154;1284;22034;-69
2023/04/11 05:00:10;;;;;;;;;;;;;;;15.12;65.12;99819.61;108209;1284;21979;-66
2023/04/11 05:02:36;;;;;;;13.70;6.00;;;;;;;15.15;65.20;99816.33;108189;1284;21976;-71
2023/04/11 05:05:03;;;;;;;8.90;5.30;;;;;;;15.18;65.48;99812.16;108285;1284;22024;-66
2023/04/11 05:07:29;;;;;;;8.90;5.30;;;;;;;15.18;65.61;99810.56;108217;1284;23634;-71
2023/04/11 05:09:59;;;;;;;;;;;;;;;15.19;66.11;99803.83;108298;1281;21963;-65
2023/04/11 05:12:26;;;;;;;10.80;6.40;;;;;;;15.19;65.97;99803.64;108196;1283;21986;-69
2023/04/11 05:14:55;;;;;;;11.90;5.70;;;;;;;15.19;65.78;99806.64;108194;1284;21993;-70
2023/04/11 05:17:25;;;;;;;9.60;5.60;;;;;;;15.22;65.80;99809.01;108212;1281;21985;-71
2023/04/11 05:19:51;;;;;;;13.20;6.40;;;;;;;15.23;66.16;99802.59;108305;1283;21988;-71
2023/04/11 05:22:17;;;;;;;9.50;6.40;;;;;;;15.26;66.09;99798.94;108281;1284;21983;-71
2023/04/11 05:24:46;;;;;;;10.30;6.60;;;;;;;15.27;66.39;99793.90;108218;1284;21991;-70
2023/04/11 05:27:12;;;;;;;9.00;5.70;;;;;;;15.30;66.70;99792.40;108218;1283;21985;-71
2023/04/11 05:29:39;;;;;;;8.00;5.40;;;;;;;15.32;66.30;99792.48;108331;1283;21982;-66
2023/04/11 05:32:12;;;;;;;12.80;5.70;;;;;;;15.37;66.21;99797.43;108342;1283;21985;-70
2023/04/11 05:34:49;;;;;;;9.60;5.30;;;;;;;15.41;66.62;99797.77;108370;1280;23647;-70
2023/04/11 05:37:15;;;;;;;8.00;5.30;;;;;;;15.43;66.92;99793.80;108389;1283;22011;-67
2023/04/11 05:39:41;;;;;;;8.40;5.80;;;;;;;15.47;66.70;99791.69;108349;1283;22103;-68
2023/04/11 05:42:06;;;;;;;8.10;5.40;;;;;;;15.49;66.95;99788.05;108384;1283;22151;-67
2023/04/11 05:44:34;;;;;;;9.20;5.40;;;;;;;15.52;67.16;99786.50;108386;1283;22016;-66
2023/04/11 05:47:00;;;;;;;9.30;5.40;;;;;;;15.52;68.24;99789.20;108228;1283;21986;-65
2023/04/11 05:49:26;;;;;;;10.30;6.10;;;;;;;15.52;67.73;99783.16;108196;1281;23605;-65
2023/04/11 05:51:52;;;;;;;9.40;5.90;;;;;;;15.54;67.69;99783.61;108156;1284;21988;-65
2023/04/11 05:54:33;;;;;;;12.40;6.70;;;;;;;15.55;68.07;99780.77;108166;1283;21988;-68
2023/04/11 05:57:01;;;;;;;9.50;5.80;;;;;;;15.57;67.54;99784.02;108213;1284;21985;-66
2023/04/11 05:59:30;;;;;;;9.10;5.50;;;;;;;15.60;67.58;99779.84;108281;1284;21986;-66
2023/04/11 06:01:57;;;;;;;8.60;5.90;;;;;;;15.61;67.65;99777.12;108258;1285;21995;-70
2023/04/11 06:04:23;;;;;;;8.90;6.10;;;;;;;15.63;67.64;99773.02;108262;1284;21980;-70
2023/04/11 06:06:50;;;;;;;11.50;6.40;;;;;;;15.64;67.52;99771.04;108205;1284;22764;-66
2023/04/11 06:09:16;;;;;;;9.40;6.70;;;;;;;15.62;67.55;99770.55;108203;1285;21981;-70
2023/04/11 06:11:42;;;;;;;10.50;6.10;;;;;;;15.62;67.65;99768.98;107466;1285;1002550;-66
2023/04/11 06:14:08;;;;;;;9.60;6.20;;;;;;;15.63;67.49;99763.98;108271;1283;22099;-70
2023/04/11 06:16:35;;;;;;;14.10;6.40;;;;;;;15.63;67.51;99766.98;108207;1280;21980;-69
2023/04/11 06:19:02;;;;;;;11.70;6.40;;;;;;;15.64;67.49;99765.00;108241;1284;21982;-66
2023/04/11 06:21:31;;;;;;;9.00;6.50;;;;;;;15.65;67.29;99767.97;108236;1283;21988;-65
2023/04/11 06:24:09;;;;;;;11.80;6.30;;;;;;;15.64;67.48;99764.46;108251;1280;22020;-64
2023/04/11 06:26:36;;;;;;;13.40;7.00;;;;;;;15.64;67.43;99763.60;108230;1284;21983;-70
2023/04/11 06:29:03;;;;;;;14.00;6.60;;;;;;;15.63;67.45;99761.31;108183;1284;21983;-70
2023/04/11 06:31:29;;;;;;;12.10;6.40;;;;;;;15.64;67.44;99760.59;108259;1285;21989;-70
2023/04/11 06:33:55;;;;;;;11.20;6.20;;;;;;;15.64;67.63;99757.59;108194;1284;21983;-65
2023/04/11 06:36:20;;;;;;;11.20;6.60;;;;;;;15.62;68.07;99748.65;108221;1285;21980;-70
2023/04/11 06:38:46;;;;;;;9.60;6.00;;;;;;;15.58;67.97;99751.84;108206;1284;21990;-71
2023/04/11 06:41:12;;;;;;;7.80;5.20;;;;;;;15.55;67.82;99751.42;108193;1284;21983;-69
2023/04/11 06:43:38;;;;;;;11.70;7.10;;;;;;;15.53;68.33;99747.95;108239;1284;21988;-64
2023/04/11 06:46:06;;;;;;;8.70;6.10;;;;;;;15.52;68.21;99746.77;108203;1284;21988;-64
2023/04/11 06:48:33;;;;;;;13.50;6.70;;;;;;;15.51;68.66;99739.73;108245;1285;21981;-65
2023/04/11 06:50:59;;;;;;;11.50;6.20;;;;;;;15.49;68.70;99740.52;108263;1284;22007;-70
2023/04/11 06:53:26;;;;;;;11.00;6.20;;;;;;;15.50;68.61;99738.38;108199;1284;21995;-70
2023/04/11 06:55:52;;;;;;;12.00;6.80;;;;;;;15.48;69.28;99736.84;108197;1284;22014;-66
2023/04/11 06:58:18;;;;;;;10.40;6.20;;;;;;;15.48;69.14;99732.27;108210;1284;21985;-70
2023/04/11 07:00:46;;;;;;;9.00;5.30;;;;;;;15.47;69.16;99731.40;108274;1284;21985;-65
2023/04/11 07:03:13;;;;;;;11.40;6.40;;;;;;;15.47;69.43;99728.39;108208;1284;21992;-61
2023/04/11 07:05:39;;;;;;;12.20;6.80;;;;;;;15.42;71.85;99730.92;108177;1284;21988;-64
2023/04/11 07:08:07;;;;;;;12.30;6.50;;;;;;;15.45;70.36;99726.02;108194;1284;21986;-64
2023/04/11 07:10:33;;;;;;;11.50;6.20;;;;;;;15.48;70.29;99722.17;108197;1283;22740;-64
2023/04/11 07:12:58;;;;;;;9.80;5.90;;;;;;;15.50;70.28;99717.64;108086;1283;21986;-70
2023/04/11 07:15:28;;;;;;;10.70;6.20;;;;;;;15.54;70.40;99716.09;108263;1280;22024;-64
2023/04/11 07:17:58;;;;;;;9.50;6.10;;;;;;;15.56;70.44;99717.05;108284;1283;21978;-69
2023/04/11 07:20:23;;;;;;;11.20;6.30;;;;;;;15.60;70.27;99716.90;108229;1283;22017;-70
2023/04/11 07:22:52;;;;;;;9.90;6.50;;;;;;;15.64;70.61;99709.48;108223;1283;22023;-63
2023/04/11 07:25:21;;;;;;;9.80;5.90;;;;;;;15.66;70.99;99709.02;108248;1283;22012;-70
2023/04/11 07:27:50;;;;;;;15.80;7.30;;;;;;;15.68;71.44;99706.46;108246;1283;21990;-64
2023/04/11 07:30:16;;;;;;;13.70;7.00;;;;;;;15.72;71.37;99709.46;108310;1283;21992;-71
2023/04/11 07:32:43;;;;;;;10.20;6.10;;;;;;;15.76;71.83;99708.21;108331;1283;21983;-71
2023/04/11 07:35:09;;;;;;;13.00;6.30;;;;;;;15.82;71.97;99704.98;108251;1283;22160;-71
2023/04/11 07:37:35;;;;;;;13.00;6.50;;;;;;;15.86;71.97;99702.66;108163;1283;22016;-64
2023/04/11 07:40:05;;;;;;;15.10;7.00;;;;;;;15.91;72.20;99692.38;108288;1283;22023;-64
2023/04/11 07:42:32;;;;;;;14.50;6.90;;;;;;;15.96;72.40;99687.55;108301;1283;23622;-71
2023/04/11 07:44:58;;;;;;;9.80;7.00;;;;;;;16.02;72.16;99680.92;108210;1283;22044;-70
2023/04/11 07:47:24;;;;;;;10.70;6.70;;;;;;;16.04;72.40;99684.17;108415;1283;22022;-72
2023/04/11 07:49:51;;;;;;;10.80;6.70;;;;;;;16.05;72.02;99681.84;108343;1278;21981;-71
2023/04/11 07:52:17;;;;;;;9.50;5.50;;;;;;;16.05;72.11;99677.61;108340;1283;21996;-64
2023/04/11 07:54:44;;;;;;;9.00;5.60;;;;;;;16.04;72.51;99680.64;108532;1283;22093;-64
2023/04/11 07:57:10;;;;;;;9.20;6.30;;;;;;;16.07;72.53;99683.52;108352;1283;21996;-62
2023/04/11 07:59:39;;;;;;;9.40;6.30;;;;;;;16.10;72.43;99683.03;108332;1280;21989;-63
2023/04/11 08:02:06;;;;;;;13.30;6.50;;;;;;;16.13;72.43;99686.05;108248;1281;23065;-70
2023/04/11 08:04:32;;;;;;;11.80;6.30;;;;;;;16.13;72.69;99680.59;108340;1283;21990;-63
2023/04/11 08:07:03;;;;;;;10.70;6.50;;;;;;;16.13;73.01;99680.23;108387;1283;21950;-68
2023/04/11 08:09:29;;;;;;;8.50;5.70;;;;;;;16.10;73.65;99676.11;108355;1283;22446;-62
2023/04/11 08:11:57;;;;;;;11.60;5.90;;;;;;;16.07;73.99;99676.11;108410;1283;21988;-70
2023/04/11 08:14:23;;;;;;;9.40;5.60;;;;;;;16.07;72.98;99673.10;108393;1283;23054;-62
2023/04/11 08:16:50;;;;;;;11.70;5.80;;;;;;;16.05;72.77;99663.42;108375;1283;21993;-63
2023/04/11 08:19:17;;;;;;;10.50;5.90;;;;;;;16.05;72.75;99660.60;108379;1283;22085;-68
2023/04/11 08:21:43;;;;;;;12.50;6.20;;;;;;;16.05;72.54;99664.86;108389;1283;21978;-63
2023/04/11 08:24:11;;;;;;;10.90;6.10;;;;;;;16.04;72.87;99663.10;108398;1283;21980;-68
2023/04/11 08:26:37;;;;;;;9.60;5.70;;;;;;;16.07;72.82;99659.30;108379;1283;21986;-63
2023/04/11 08:29:02;;;;;;;9.60;6.10;;;;;;;16.08;73.18;99655.02;108384;1283;21974;-69
2023/04/11 08:31:28;;;;;;;10.90;6.00;;;;;;;16.10;73.46;99654.33;108377;1283;21982;-63
2023/04/11 08:33:54;;;;;;;12.30;6.40;;;;;;;16.14;73.57;99649.71;108436;1283;22439;-64
2023/04/11 08:36:20;;;;;;;9.90;5.90;;;;;;;16.21;73.50;99652.98;108394;1283;22015;-62
2023/04/11 08:38:46;;;;;;;10.30;6.00;;;;;;;16.26;73.65;99646.52;108228;1283;22017;-64
2023/04/11 08:41:11;;;;;;;9.70;5.40;;;;;;;16.29;73.76;99648.15;108278;1283;21981;-61
2023/04/11 08:43:39;;;;;;;8.50;5.40;;;;;;;16.33;73.98;99649.23;108132;1283;21983;-62
2023/04/11 08:46:08;;;;;;;8.90;5.60;;;;;;;16.36;73.84;99643.75;108278;1283;21992;-62
2023/04/11 08:48:35;;;;;;;9.00;6.00;;;;;;;16.38;73.42;99639.73;108248;1284;21979;-62
2023/04/11 08:51:01;;;;;;;10.10;5.30;;;;;;;16.41;73.66;99629.88;108207;1284;21994;-67
2023/04/11 08:53:27;;;;;;;9.50;5.40;;;;;;;16.42;73.44;99625.73;108233;1284;22001;-67
2023/04/11 08:55:53;;;;;;;13.10;9.60;;;;;;;16.45;73.81;99625.80;108118;1284;21989;-62
2023/04/11 08:58:18;;;;;;;22.90;16.80;;;;;;;16.46;73.64;99622.19;108232;1284;22235;-68
2023/04/11 09:00:46;;;;;;;18.30;10.50;;;;;;;16.48;73.58;99618.59;108205;1284;21986;-62
2023/04/11 09:03:14;;;;;;;16.70;10.20;;;;;;;16.51;73.80;99613.85;108225;1284;21994;-63
2023/04/11 09:05:43;;;;;;;;;;;;;;;16.57;74.06;99603.23;108248;1283;21966;-67
2023/04/11 09:08:11;;;;;;;12.70;6.80;;;;;;;16.65;73.85;99596.30;108254;1283;21986;-62
2023/04/11 09:10:37;;;;;;;12.90;7.60;;;;;;;16.65;73.78;99591.50;108210;1283;21991;-67
2023/04/11 09:13:20;;;;;;;11.70;7.30;;;;;;;16.66;74.53;99587.02;108318;1283;21992;-67
2023/04/11 09:15:47;;;;;;;10.10;6.70;;;;;;;16.67;74.99;99577.96;108301;1283;23046;-63
2023/04/11 09:18:32;;;;;;;11.50;6.20;;;;;;;16.69;74.97;99576.31;108294;1283;23751;-69
2023/04/11 09:20:59;;;;;;;13.30;6.70;;;;;;;16.69;74.69;99569.89;108183;1283;21984;-63
2023/04/11 09:23:25;;;;;;;11.20;6.30;;;;;;;16.64;74.29;99565.37;108102;1284;23651;-69
2023/04/11 09:25:50;;;;;;;12.00;7.80;;;;;;;16.59;74.23;99562.40;108208;1277;21991;-68
2023/04/11 09:28:18;;;;;;;12.80;7.30;;;;;;;16.57;74.35;99565.01;108245;1284;22000;-63
2023/04/11 09:30:51;;;;;;;11.30;7.80;;;;;;;16.57;74.71;99561.79;108197;1284;23728;-68
2023/04/11 09:33:22;;;;;;;12.70;7.40;;;;;;;16.57;75.23;99560.40;108295;1283;21978;-62
2023/04/11 09:35:49;;;;;;;14.70;8.10;;;;;;;16.59;75.20;99557.30;108271;1283;21969;-63
2023/04/11 09:38:32;;;;;;;12.70;7.70;;;;;;;16.63;75.26;99552.67;108214;1283;25090;-62
2023/04/11 09:41:02;;;;;;;15.40;7.90;;;;;;;16.68;75.55;99556.30;108382;1283;21977;-62
2023/04/11 09:43:51;;;;;;;12.00;7.00;;;;;;;16.73;75.46;99561.38;108399;1280;21961;-67
2023/04/11 09:46:19;;;;;;;14.20;7.40;;;;;;;16.74;75.10;99566.81;108375;1283;21983;-62
2023/04/11 09:48:48;;;;;;;15.40;6.80;;;;;;;16.76;74.82;99571.29;108442;1283;21983;-66
2023/04/11 09:51:15;;;;;;;14.80;6.40;;;;;;;16.80;74.70;99571.29;108333;1283;22027;-67
2023/04/11 09:53:41;;;;;;;10.80;6.20;;;;;;;16.81;75.45;99564.14;108240;1283;23631;-63
2023/04/11 09:56:07;;;;;;;11.80;6.30;;;;;;;16.82;75.50;99562.15;108226;1283;21988;-61
2023/04/11 09:58:35;;;;;;;9.60;6.60;;;;;;;16.83;75.55;99557.85;108255;1284;21994;-62
2023/04/11 10:01:01;;;;;;;8.70;5.60;;;;;;;16.82;75.01;99559.52;108250;1283;22922;-66
2023/04/11 10:03:33;;;;;;;12.00;6.50;;;;;;;16.80;75.27;99553.40;108240;1283;21991;-63
2023/04/11 10:06:01;;;;;;;10.60;6.00;;;;;;;16.81;75.22;99542.52;108253;1283;21989;-62
2023/04/11 10:08:31;;;;;;;8.40;5.70;;;;;;;16.82;75.27;99541.05;108392;1283;21985;-66
2023/04/11 10:10:59;;;;;;;11.40;6.10;;;;;;;16.82;75.16;99535.94;108401;1283;21986;-63
2023/04/11 10:13:34;;;;;;;9.30;6.20;;;;;;;16.80;75.19;99530.73;108256;1283;21980;-65
2023/04/11 10:16:14;;;;;;;13.10;6.30;;;;;;;16.77;74.89;99521.13;108355;1283;21986;-64
2023/04/11 10:18:46;;;;;;;;;;;;;;;16.75;74.83;99513.10;108378;1283;21972;-63
2023/04/11 10:21:35;;;;;;;10.00;5.80;;;;;;;16.72;75.04;99508.98;108320;1283;21981;-63
2023/04/11 10:24:10;;;;;;;9.80;5.60;;;;;;;16.67;74.77;99499.33;108240;1283;21983;-63
2023/04/11 10:26:51;;;;;;;9.90;6.40;;;;;;;16.64;74.91;99488.51;108330;1283;23618;-66
2023/04/11 10:29:33;;;;;;;11.80;5.90;;;;;;;16.60;75.15;99485.14;108343;1283;22018;-66
2023/04/11 10:32:14;;;;;;;10.70;6.50;;;;;;;16.58;75.29;99485.27;108438;1270;21985;-66
2023/04/11 10:34:49;;;;;;;10.40;6.10;;;;;;;16.56;75.06;99487.28;108228;1283;22002;-64
2023/04/11 10:37:36;;;;;;;9.90;6.30;;;;;;;16.56;75.11;99489.08;108294;1283;23611;-63
2023/04/11 10:40:07;;;;;;;10.10;5.90;;;;;;;16.57;75.27;99492.08;108361;1283;22449;-64
2023/04/11 10:42:43;;;;;;;11.40;5.80;;;;;;;16.57;75.40;99492.92;108261;1283;21980;-64
2023/04/11 10:45:28;;;;;;;9.80;5.60;;;;;;;16.57;75.90;99488.83;108303;1280;21987;-65
2023/04/11 10:47:55;;;;;;;10.00;5.70;;;;;;;16.59;75.60;99490.15;108275;1282;21981;-66
2023/04/11 10:50:30;;;;;;;8.40;5.60;;;;;;;16.60;75.53;99488.68;108223;1283;22451;-63
2023/04/11 10:52:59;;;;;;;10.50;6.30;;;;;;;16.61;75.67;99484.36;108286;1283;21999;-65
2023/04/11 10:55:27;;;;;;;11.50;5.60;;;;;;;16.65;75.22;99490.41;108279;1283;22020;-63
2023/04/11 10:58:04;;;;;;;9.80;6.40;;;;;;;16.71;75.06;99494.73;108287;1283;21976;-63
2023/04/11 11:00:59;;;;;;;10.90;6.10;;;;;;;16.72;75.22;99490.42;108295;1283;23053;-65
2023/04/11 11:03:30;;;;;;;8.40;5.40;;;;;;;16.71;75.18;99493.80;108244;1283;21985;-65
2023/04/11 11:05:58;;;;;;;8.60;5.30;;;;;;;16.72;75.43;99488.80;108205;1283;22045;-65
2023/04/11 11:08:32;;;;;;;9.10;5.50;;;;;;;16.71;75.72;99489.36;108271;1280;21990;-63
2023/04/11 11:11:02;;;;;;;10.30;5.50;;;;;;;16.73;75.56;99484.50;107490;1283;1002412;-64
2023/04/11 11:13:51;;;;;;;10.50;5.40;;;;;;;16.76;75.42;99486.10;108238;1283;23606;-65
2023/04/11 11:16:19;;;;;;;11.30;5.60;;;;;;;16.73;75.37;99484.86;108255;1283;21983;-64
2023/04/11 11:18:52;;;;;;;14.60;5.50;;;;;;;16.65;75.84;99487.04;108301;1280;21980;-65
2023/04/11 11:21:23;;;;;;;9.60;5.90;;;;;;;16.67;75.89;99485.37;108388;1283;22038;-64
2023/04/11 11:24:06;;;;;;;9.50;5.70;;;;;;;16.65;75.76;99488.98;108291;1283;21976;-64
2023/04/11 11:26:37;;;;;;;9.00;5.50;;;;;;;16.66;75.52;99497.26;108216;1283;21991;-64